Time;durP1;ratioP1;P1;durP2;ratioP2;P2;SDS_P1;SDS_P2;PMS_P1;PMS_P2;Temp;Humidity;BMP_temperature;BMP_pressure;BME280_temperature;BME280_humidity;BME280_pressure;Samples;Min_cycle;Max_cycle;Signal;HPM_P1;HPM_P2
2022/08/08 00:00:10;;;;;;;2.05;0.80;;;;;;;19.50;55.85;100353.34;4884295;29;20123;-79
2022/08/08 00:03:03;;;;;;;1.77;0.80;;;;;;;19.64;55.87;100369.50;4899189;29;20024;-79
2022/08/08 00:05:48;;;;;;;3.03;0.98;;;;;;;19.64;54.18;100366.81;4882158;29;20056;-79
2022/08/08 00:08:16;;;;;;;1.73;0.90;;;;;;;19.63;55.37;100365.09;4898712;29;20073;-79
2022/08/08 00:11:05;;;;;;;1.10;0.88;;;;;;;19.57;53.38;100352.84;4881085;29;20040;-79
2022/08/08 00:13:54;;;;;;;1.35;0.90;;;;;;;19.65;53.06;100369.41;4864973;29;20107;-79
2022/08/08 00:16:28;;;;;;;3.20;0.98;;;;;;;19.59;53.53;100350.91;4862325;29;20037;-79
2022/08/08 00:19:18;;;;;;;3.28;1.13;;;;;;;19.62;53.36;100358.81;4878864;29;20037;-79
2022/08/08 00:21:56;;;;;;;1.98;0.85;;;;;;;19.62;53.75;100368.72;4863609;29;20084;-79
2022/08/08 00:24:35;;;;;;;1.45;0.82;;;;;;;19.58;52.94;100351.03;4862384;29;20032;-79
2022/08/08 00:27:09;;;;;;;2.60;0.80;;;;;;;19.60;52.98;100359.88;4880027;29;20029;-79
2022/08/08 00:29:42;;;;;;;3.75;1.00;;;;;;;19.55;53.51;100353.91;4864181;29;20095;-78
2022/08/08 00:32:18;;;;;;;1.73;0.80;;;;;;;19.61;53.99;100369.72;4867939;29;20041;-78
2022/08/08 00:35:21;;;;;;;1.63;0.95;;;;;;;19.61;54.02;100369.72;4874611;29;20029;-78
2022/08/08 00:38:11;;;;;;;1.05;0.90;;;;;;;19.62;54.46;100376.81;4897773;29;20060;-78
2022/08/08 00:40:47;;;;;;;4.82;1.10;;;;;;;19.58;54.05;100378.00;4896416;29;20067;-78
2022/08/08 00:43:41;;;;;;;4.63;1.10;;;;;;;19.50;54.38;100364.13;4896322;29;20064;-78
2022/08/08 00:46:28;;;;;;;1.90;1.00;;;;;;;19.67;52.31;100377.41;4872870;29;20037;-78
2022/08/08 00:49:06;;;;;;;3.33;1.00;;;;;;;19.72;52.09;100379.84;4860762;29;20499;-78
2022/08/08 00:52:14;;;;;;;2.08;0.80;;;;;;;19.69;52.96;100383.56;4860610;29;20029;-78
2022/08/08 00:55:16;;;;;;;5.18;1.17;;;;;;;19.70;52.75;100379.94;4878297;29;20031;-78
2022/08/08 00:58:15;;;;;;;2.47;0.77;;;;;;;19.71;52.13;100378.06;4861611;29;20052;-78
2022/08/08 01:00:47;;;;;;;1.80;0.82;;;;;;;19.67;52.95;100382.81;4878303;29;20029;-78
2022/08/08 01:03:51;;;;;;;1.88;1.00;;;;;;;19.57;53.02;100370.88;4879335;29;20036;-78
2022/08/08 01:06:51;;;;;;;4.10;0.90;;;;;;;19.48;53.64;100366.94;4874922;29;20416;-78
2022/08/08 01:09:47;;;;;;;3.95;0.90;;;;;;;19.51;53.35;100384.75;4904898;29;20082;-78
2022/08/08 01:12:45;;;;;;;2.00;0.90;;;;;;;19.46;53.89;100389.56;4916172;29;20084;-78
2022/08/08 01:15:47;;;;;;;2.97;0.95;;;;;;;19.40;54.52;100385.44;4893473;29;20086;-78
2022/08/08 01:18:40;;;;;;;1.95;1.10;;;;;;;19.27;53.67;100370.06;4898644;29;20454;-78
2022/08/08 01:21:32;;;;;;;2.45;1.40;;;;;;;19.35;54.20;100392.06;4897861;29;20884;-78
2022/08/08 01:24:25;;;;;;;1.65;0.93;;;;;;;19.31;53.23;100395.91;4915972;29;20028;-78
2022/08/08 01:27:06;;;;;;;1.08;0.82;;;;;;;19.25;54.44;100397.16;4915039;29;20031;-78
2022/08/08 01:29:49;;;;;;;2.25;1.00;;;;;;;19.19;54.54;100394.81;4914673;29;20035;-78
2022/08/08 01:32:53;;;;;;;2.17;0.93;;;;;;;19.09;55.81;100400.88;4898273;29;20038;-78
2022/08/08 01:35:36;;;;;;;1.60;0.80;;;;;;;18.97;56.11;100391.72;4915709;29;20056;-78
2022/08/08 01:38:26;;;;;;;2.00;1.27;;;;;;;18.88;56.95;100391.41;4915308;29;20084;-78
2022/08/08 01:40:58;;;;;;;3.33;1.15;;;;;;;18.76;57.36;100387.63;4897692;29;20039;-78
2022/08/08 01:43:32;;;;;;;2.47;1.10;;;;;;;18.63;57.31;100389.31;4898736;29;20032;-79
2022/08/08 01:46:35;;;;;;;2.08;1.10;;;;;;;18.52;57.49;100391.75;4898059;29;20063;-78
2022/08/08 01:49:17;;;;;;;1.73;0.82;;;;;;;18.36;58.93;100388.22;4898184;29;20032;-78
2022/08/08 01:52:30;;;;;;;2.88;1.05;;;;;;;18.21;59.61;100367.56;4898271;29;20112;-78
2022/08/08 01:55:27;;;;;;;1.55;0.93;;;;;;;18.18;59.87;100374.00;4897262;29;20404;-78
2022/08/08 01:58:15;;;;;;;2.30;1.08;;;;;;;18.05;60.19;100383.75;4914562;29;20070;-78
2022/08/08 02:00:47;;;;;;;3.10;1.17;;;;;;;17.98;60.10;100382.34;4888470;29;20476;-78
2022/08/08 02:03:25;;;;;;;1.02;0.80;;;;;;;17.96;59.51;100378.88;4897149;29;20034;-78
2022/08/08 02:06:20;;;;;;;2.05;0.90;;;;;;;17.42;59.56;100298.53;4907287;29;20024;-78
2022/08/08 02:09:05;;;;;;;1.35;0.90;;;;;;;17.77;61.10;100356.66;4892770;29;20865;-78
2022/08/08 02:12:02;;;;;;;1.15;0.82;;;;;;;17.85;60.37;100380.44;4895017;29;20032;-78
2022/08/08 02:14:39;;;;;;;1.17;0.80;;;;;;;17.78;61.33;100387.97;4893497;29;20051;-78
2022/08/08 02:17:42;;;;;;;1.70;1.00;;;;;;;17.77;61.34;100388.94;4877483;29;20028;-78
2022/08/08 02:20:23;;;;;;;3.58;1.30;;;;;;;17.71;62.23;100391.97;4876841;29;20465;-78
2022/08/08 02:23:13;;;;;;;1.90;1.05;;;;;;;17.61;62.56;100388.03;4879793;29;20075;-78
2022/08/08 02:26:15;;;;;;;2.28;0.98;;;;;;;17.58;62.30;100388.22;4877485;29;20436;-78
2022/08/08 02:28:46;;;;;;;1.13;0.93;;;;;;;17.59;62.39;100394.47;4878704;29;20036;-78
2022/08/08 02:31:37;;;;;;;2.55;0.90;;;;;;;17.56;61.65;100390.13;4878119;29;20127;-78
2022/08/08 02:34:09;;;;;;;2.85;0.93;;;;;;;17.49;61.82;100388.75;4898140;29;20056;-78
2022/08/08 02:36:49;;;;;;;1.73;1.15;;;;;;;17.50;63.03;100387.78;4879080;29;20441;-78
2022/08/08 02:39:40;;;;;;;2.78;1.10;;;;;;;17.51;62.18;100386.81;4877909;29;20377;-78
2022/08/08 02:42:42;;;;;;;1.92;1.13;;;;;;;17.46;61.39;100388.88;4878156;29;20805;-78
2022/08/08 02:45:20;;;;;;;2.40;1.20;;;;;;;17.39;61.56;100387.47;4877983;29;20032;-78
2022/08/08 02:48:27;;;;;;;2.78;1.30;;;;;;;17.30;62.05;100387.94;4878355;29;20044;-78
2022/08/08 02:51:30;;;;;;;2.05;1.13;;;;;;;17.24;62.27;100388.28;4821261;29;20042;-78
2022/08/08 02:54:35;;;;;;;2.22;1.08;;;;;;;16.96;62.18;100350.41;4865576;29;20036;-78
2022/08/08 02:57:00;;;;;;;1.40;1.00;;;;;;;17.09;62.93;100389.09;4895121;29;20021;-78
2022/08/08 02:59:47;;;;;;;2.75;1.02;;;;;;;17.02;62.25;100393.94;4895076;29;20028;-78
2022/08/08 03:02:31;;;;;;;4.20;1.17;;;;;;;17.02;62.26;100393.06;4878432;29;20790;-78
2022/08/08 03:05:12;;;;;;;3.42;1.40;;;;;;;16.97;62.79;100393.31;4893030;29;20084;-78
2022/08/08 03:07:59;;;;;;;1.52;1.17;;;;;;;16.96;64.07;100398.78;4899281;29;20028;-78
2022/08/08 03:11:01;;;;;;;2.65;1.58;;;;;;;16.86;63.70;100386.75;4899571;29;20059;-78
2022/08/08 03:13:41;;;;;;;2.92;1.23;;;;;;;16.87;63.52;100402.81;4880482;29;20420;-78
2022/08/08 03:16:43;;;;;;;2.40;1.30;;;;;;;16.85;63.81;100395.78;4916487;29;20066;-78
2022/08/08 03:19:46;;;;;;;2.17;1.13;;;;;;;16.79;64.42;100393.41;4900211;29;20028;-78
2022/08/08 03:22:11;;;;;;;2.72;1.10;;;;;;;16.76;63.45;100396.25;4900004;29;20032;-78
2022/08/08 03:24:36;;;;;;;1.90;1.10;;;;;;;16.61;64.63;100383.59;4899681;29;20058;-78
2022/08/08 03:27:15;;;;;;;1.95;1.20;;;;;;;16.66;64.29;100394.97;4916405;29;20046;-78
2022/08/08 03:29:45;;;;;;;3.83;1.00;;;;;;;16.56;64.31;100396.38;4916455;29;20024;-78
2022/08/08 03:34:55;;;;;;;2.08;1.38;;;;;;;16.42;65.85;100374.72;4917019;29;20408;-78
2022/08/08 03:37:21;;;;;;;7.95;2.47;;;;;;;16.57;64.44;100398.16;4916975;29;20035;-78
2022/08/08 03:39:46;;;;;;;3.60;1.10;;;;;;;16.51;65.58;100390.38;4917137;29;20036;-78
2022/08/08 03:42:16;;;;;;;1.52;1.10;;;;;;;16.49;66.17;100393.16;4916837;29;20035;-78
2022/08/08 03:44:42;;;;;;;4.90;1.60;;;;;;;16.37;66.05;100376.78;4917982;29;20488;-78
2022/08/08 03:47:08;;;;;;;4.10;1.30;;;;;;;16.38;66.73;100383.88;4901078;29;20721;-78
2022/08/08 03:49:33;;;;;;;1.83;1.27;;;;;;;16.49;67.14;100398.53;4897840;29;20024;-78
2022/08/08 03:51:59;;;;;;;3.35;1.58;;;;;;;16.45;66.72;100405.00;4897979;29;20476;-78
2022/08/08 03:54:25;;;;;;;5.68;1.90;;;;;;;16.52;66.70;100419.84;4898415;29;20092;-78
2022/08/08 03:56:51;;;;;;;2.08;1.35;;;;;;;16.45;67.51;100406.78;4897963;29;20107;-78
2022/08/08 03:59:16;;;;;;;2.22;1.10;;;;;;;16.53;67.57;100409.97;4892758;29;20035;-78
2022/08/08 04:01:42;;;;;;;5.60;1.40;;;;;;;16.54;68.06;100422.47;4881018;29;20396;-78
2022/08/08 04:04:08;;;;;;;2.95;1.23;;;;;;;16.46;67.21;100403.16;4881151;29;20149;-78
2022/08/08 04:06:34;;;;;;;1.83;1.13;;;;;;;16.39;65.71;100396.34;4898141;29;20033;-78
2022/08/08 04:09:02;;;;;;;1.98;1.38;;;;;;;16.50;66.36;100420.88;4880529;29;20043;-78
2022/08/08 04:11:30;;;;;;;2.05;1.23;;;;;;;16.33;66.84;100408.25;4897630;29;20839;-78
2022/08/08 04:13:55;;;;;;;1.83;1.30;;;;;;;16.34;66.50;100403.78;4897268;29;20036;-78
2022/08/08 04:16:21;;;;;;;3.33;1.20;;;;;;;16.32;66.80;100411.91;4880406;29;20028;-77
2022/08/08 04:18:47;;;;;;;2.60;1.20;;;;;;;16.28;67.18;100404.06;4880037;29;20043;-78
2022/08/08 04:21:14;;;;;;;3.97;1.45;;;;;;;16.31;67.57;100403.94;4879826;29;20036;-78
2022/08/08 04:23:39;;;;;;;3.00;1.23;;;;;;;16.30;66.67;100413.78;4896876;29;20040;-78
2022/08/08 04:26:05;;;;;;;2.05;1.05;;;;;;;16.33;67.39;100424.38;4878912;29;20024;-78
2022/08/08 04:28:31;;;;;;;2.00;1.20;;;;;;;16.35;67.32;100421.59;4896386;29;20032;-78
2022/08/08 04:30:56;;;;;;;1.55;1.20;;;;;;;16.33;68.25;100423.50;4895885;29;20040;-78
2022/08/08 04:33:22;;;;;;;2.67;1.48;;;;;;;16.27;67.89;100408.59;4898291;29;20052;-78
2022/08/08 04:35:47;;;;;;;1.83;1.10;;;;;;;16.18;68.94;100402.75;4915153;29;20050;-78
2022/08/08 04:38:13;;;;;;;3.83;1.05;;;;;;;16.43;68.07;100451.63;4914991;29;20039;-78
2022/08/08 04:40:38;;;;;;;2.55;1.25;;;;;;;16.39;67.72;100439.31;4915943;29;20039;-78
2022/08/08 04:43:04;;;;;;;9.48;1.40;;;;;;;16.39;68.71;100450.91;4916660;29;20032;-78
2022/08/08 04:45:30;;;;;;;2.20;1.15;;;;;;;16.45;69.54;100452.44;4896347;29;20130;-78
2022/08/08 04:47:58;;;;;;;4.30;1.23;;;;;;;16.40;68.42;100436.56;4896275;29;20036;-78
2022/08/08 04:50:24;;;;;;;7.95;1.40;;;;;;;16.51;68.66;100463.78;4897073;29;20036;-78
2022/08/08 04:52:50;;;;;;;2.78;1.10;;;;;;;16.47;68.44;100446.09;4897805;29;20040;-78
2022/08/08 04:55:16;;;;;;;2.67;1.00;;;;;;;16.64;67.38;100464.91;4895325;29;20032;-78
2022/08/08 04:57:41;;;;;;;2.42;1.30;;;;;;;16.71;68.06;100469.03;4896942;29;20031;-78
2022/08/08 05:00:08;;;;;;;2.97;1.20;;;;;;;16.71;67.79;100468.13;4895307;29;20453;-78
2022/08/08 05:02:34;;;;;;;3.60;1.40;;;;;;;16.74;66.23;100462.59;4895893;29;20024;-78
2022/08/08 05:04:59;;;;;;;3.28;1.08;;;;;;;16.90;67.93;100479.72;4912188;29;20460;-78
2022/08/08 05:07:25;;;;;;;2.65;1.25;;;;;;;16.97;67.08;100475.75;4898496;29;20059;-78
2022/08/08 05:09:50;;;;;;;3.08;1.40;;;;;;;16.95;66.19;100472.28;4914884;29;20051;-78
2022/08/08 05:12:16;;;;;;;1.50;1.08;;;;;;;17.08;65.74;100484.16;4898106;29;20175;-78
2022/08/08 05:14:41;;;;;;;2.78;1.80;;;;;;;17.19;66.55;100497.88;4898381;29;20032;-78
2022/08/08 05:17:07;;;;;;;1.67;1.13;;;;;;;17.26;65.13;100485.88;4898624;29;20534;-78
2022/08/08 05:19:34;;;;;;;2.13;1.40;;;;;;;17.36;65.25;100483.56;4915719;29;20052;-78
2022/08/08 05:22:00;;;;;;;1.83;1.08;;;;;;;17.48;63.74;100488.34;4898648;29;20084;-78
2022/08/08 05:24:25;;;;;;;2.50;1.23;;;;;;;17.58;63.96;100482.38;4915947;29;20035;-78
2022/08/08 05:26:51;;;;;;;6.75;1.60;;;;;;;17.70;64.20;100486.22;4898004;29;20555;-78
2022/08/08 05:29:16;;;;;;;3.65;1.17;;;;;;;17.81;62.60;100489.19;4898106;29;20044;-78
2022/08/08 05:31:42;;;;;;;3.42;1.38;;;;;;;17.89;61.97;100482.44;4915163;29;20387;-78
2022/08/08 05:34:24;;;;;;;1.63;1.20;;;;;;;18.10;60.64;100494.69;4907407;29;20036;-78
2022/08/08 05:36:51;;;;;;;2.15;1.10;;;;;;;18.18;60.23;100476.31;4896129;29;20037;-78
2022/08/08 05:39:20;;;;;;;1.60;1.20;;;;;;;18.44;60.16;100499.09;4878382;29;20161;-78
2022/08/08 05:41:49;;;;;;;3.00;0.90;;;;;;;18.44;60.80;100493.72;4895330;29;20496;-78
2022/08/08 05:44:20;;;;;;;2.05;1.60;;;;;;;18.65;59.43;100478.16;4895553;29;20032;-77
2022/08/08 05:46:45;;;;;;;1.50;1.02;;;;;;;18.97;59.34;100504.06;4878388;29;20096;-77
2022/08/08 05:49:13;;;;;;;1.40;1.02;;;;;;;19.11;58.87;100510.38;4894983;29;20029;-78
2022/08/08 05:51:40;;;;;;;2.10;1.10;;;;;;;19.21;59.74;100502.59;4895216;29;20052;-78
2022/08/08 05:54:06;;;;;;;2.15;1.00;;;;;;;19.37;58.11;100504.31;4895641;29;20111;-78
2022/08/08 05:56:37;;;;;;;5.60;1.10;;;;;;;19.42;59.40;100495.97;4879152;29;20048;-78
2022/08/08 05:59:05;;;;;;;1.90;1.08;;;;;;;19.62;57.88;100493.75;4895600;29;20442;-78
2022/08/08 06:01:32;;;;;;;2.20;1.25;;;;;;;20.02;56.82;100502.06;4895840;29;20056;-78
2022/08/08 06:04:02;;;;;;;2.10;1.00;;;;;;;20.34;54.31;100509.88;4896259;29;20119;-78
2022/08/08 06:06:32;;;;;;;3.90;1.30;;;;;;;20.45;55.58;100503.75;4879138;29;20035;-78
2022/08/08 06:09:03;;;;;;;3.78;1.25;;;;;;;20.54;55.14;100517.53;4894814;29;20473;-78
2022/08/08 06:11:32;;;;;;;1.80;1.15;;;;;;;20.61;55.81;100528.81;4881724;29;20040;-78
2022/08/08 06:13:59;;;;;;;2.88;1.35;;;;;;;20.55;54.00;100511.19;4879050;29;20037;-78
2022/08/08 06:16:26;;;;;;;4.57;1.35;;;;;;;20.64;54.21;100518.69;4896219;29;20259;-79
2022/08/08 06:18:53;;;;;;;2.92;1.00;;;;;;;20.86;53.25;100534.34;4895029;29;20069;-78
2022/08/08 06:21:20;;;;;;;3.45;1.17;;;;;;;20.94;52.26;100532.88;4895257;29;20071;-78
2022/08/08 06:23:46;;;;;;;3.47;1.23;;;;;;;21.07;51.63;100530.22;4878772;29;20123;-78
2022/08/08 06:26:13;;;;;;;1.05;0.80;;;;;;;21.15;51.41;100518.91;4878008;29;20123;-78
2022/08/08 06:28:56;;;;;;;4.10;0.90;;;;;;;21.36;50.99;100539.09;4875160;29;20032;-78
2022/08/08 06:31:22;;;;;;;8.07;1.00;;;;;;;21.54;50.15;100532.41;4860542;29;20141;-78
2022/08/08 06:34:11;;;;;;;3.88;1.00;;;;;;;21.81;50.06;100535.94;4885673;29;20060;-78
2022/08/08 06:36:38;;;;;;;1.95;1.05;;;;;;;22.00;48.64;100552.63;4859950;29;20429;-78
2022/08/08 06:39:08;;;;;;;1.02;0.80;;;;;;;22.08;48.66;100545.69;4876190;29;20750;-78
2022/08/08 06:41:40;;;;;;;2.35;0.82;;;;;;;22.06;49.11;100535.91;4875959;29;20404;-78
2022/08/08 06:44:10;;;;;;;2.85;0.80;;;;;;;22.28;48.46;100549.66;4877257;29;20029;-78
2022/08/08 06:46:37;;;;;;;1.20;0.90;;;;;;;22.36;47.11;100533.72;4889520;29;20759;-78
2022/08/08 06:49:03;;;;;;;2.95;0.90;;;;;;;22.58;46.51;100544.75;4878780;29;20040;-78
2022/08/08 06:51:28;;;;;;;1.95;0.70;;;;;;;22.73;46.42;100548.19;4896160;29;20037;-78
2022/08/08 06:53:55;;;;;;;3.72;0.80;;;;;;;22.74;46.04;100539.94;4881641;29;20025;-78
2022/08/08 06:56:22;;;;;;;2.15;1.40;;;;;;;22.85;46.44;100544.56;4880282;29;20027;-78
2022/08/08 06:58:47;;;;;;;4.72;1.33;;;;;;;22.88;45.88;100515.34;4894714;29;20044;-78
2022/08/08 07:01:13;;;;;;;0.68;0.60;;;;;;;23.14;45.88;100538.69;4895172;29;20032;-78
2022/08/08 07:03:48;;;;;;;1.85;1.08;;;;;;;23.32;44.34;100558.16;4899219;29;20036;-78
2022/08/08 07:06:17;;;;;;;1.70;0.98;;;;;;;23.47;45.19;100550.69;4914350;29;20055;-78
2022/08/08 07:08:46;;;;;;;2.90;0.90;;;;;;;23.77;45.03;100542.88;4896860;29;20060;-78
2022/08/08 07:11:16;;;;;;;3.05;0.90;;;;;;;24.14;43.18;100558.00;4913730;29;20035;-78
2022/08/08 07:13:44;;;;;;;4.07;0.73;;;;;;;24.33;42.67;100555.56;4897140;29;20066;-78
2022/08/08 07:16:20;;;;;;;2.17;0.70;;;;;;;24.46;41.83;100559.88;4897364;29;20043;-78
2022/08/08 07:18:45;;;;;;;1.48;0.80;;;;;;;24.71;41.54;100564.22;4914320;29;20059;-78
2022/08/08 07:21:16;;;;;;;2.15;0.77;;;;;;;24.91;40.75;100560.69;4897513;29;20475;-78
2022/08/08 07:23:49;;;;;;;2.47;0.80;;;;;;;25.07;40.44;100547.56;4914673;29;20035;-78
2022/08/08 07:26:17;;;;;;;1.58;0.80;;;;;;;25.26;40.56;100547.72;4896755;29;20075;-78
2022/08/08 07:28:43;;;;;;;0.98;0.70;;;;;;;25.56;39.70;100564.22;4913945;29;20028;-78
2022/08/08 07:31:09;;;;;;;2.85;0.90;;;;;;;25.92;39.74;100554.72;4913936;29;20032;-78
2022/08/08 07:33:35;;;;;;;1.75;0.60;;;;;;;26.43;39.53;100565.63;4896642;29;20028;-78
2022/08/08 07:36:04;;;;;;;5.07;1.10;;;;;;;26.55;38.46;100553.63;4906073;29;20101;-78
2022/08/08 07:38:31;;;;;;;1.92;0.80;;;;;;;26.80;37.13;100558.63;4881152;29;20032;-79
2022/08/08 07:40:57;;;;;;;1.05;0.93;;;;;;;26.95;36.25;100562.69;4877362;29;20033;-78
2022/08/08 07:43:23;;;;;;;4.05;0.65;;;;;;;27.34;36.99;100559.03;4876857;29;20052;-79
2022/08/08 07:45:48;;;;;;;1.23;0.40;;;;;;;27.23;34.94;100549.06;4888267;29;20025;-79
2022/08/08 07:48:14;;;;;;;1.10;0.60;;;;;;;27.41;35.75;100565.66;4878430;29;20032;-79
2022/08/08 07:50:41;;;;;;;2.05;0.70;;;;;;;27.57;36.02;100555.00;4878124;29;20033;-79
2022/08/08 07:53:21;;;;;;;2.72;0.68;;;;;;;28.00;36.33;100563.63;4897602;29;20036;-80
2022/08/08 07:55:50;;;;;;;2.03;0.60;;;;;;;28.20;34.19;100554.31;4899726;29;20675;-80
2022/08/08 07:58:24;;;;;;;4.40;1.08;;;;;;;28.58;34.74;100563.44;4898419;29;20029;-79
2022/08/08 08:00:52;;;;;;;1.05;0.57;;;;;;;29.20;33.77;100577.25;4882159;29;20028;-79
2022/08/08 08:03:42;;;;;;;7.60;0.90;;;;;;;29.39;33.50;100580.69;4883186;29;20055;-79
2022/08/08 08:06:10;;;;;;;1.13;0.85;;;;;;;29.56;32.43;100570.75;4901360;29;20032;-79
2022/08/08 08:08:46;;;;;;;2.97;1.00;;;;;;;29.57;33.24;100577.97;4906105;29;20493;-79
2022/08/08 08:11:13;;;;;;;1.25;0.50;;;;;;;29.65;32.92;100575.31;4883298;29;20399;-80
2022/08/08 08:13:55;;;;;;;6.28;0.77;;;;;;;29.99;32.42;100576.28;4881375;29;20033;-80
2022/08/08 08:16:23;;;;;;;2.85;0.70;;;;;;;30.18;32.79;100581.56;4898757;29;20025;-80
2022/08/08 08:19:00;;;;;;;3.35;0.60;;;;;;;30.35;33.55;100583.44;4898161;29;20039;-80
2022/08/08 08:21:28;;;;;;;1.10;0.68;;;;;;;30.56;33.58;100581.16;4882698;29;20024;-80
2022/08/08 08:23:54;;;;;;;4.93;0.80;;;;;;;30.52;33.74;100568.78;4899373;29;20029;-80
2022/08/08 08:26:20;;;;;;;1.95;0.68;;;;;;;30.50;33.24;100565.34;4898362;29;20477;-80
2022/08/08 08:28:46;;;;;;;3.55;0.77;;;;;;;30.79;32.90;100585.06;4881695;29;20718;-80
2022/08/08 08:31:12;;;;;;;1.02;0.68;;;;;;;30.84;33.51;100577.19;4897806;29;20024;-81
2022/08/08 08:33:38;;;;;;;1.88;0.75;;;;;;;31.09;33.97;100588.28;4903046;29;20236;-80
2022/08/08 08:36:06;;;;;;;1.67;0.70;;;;;;;31.24;32.35;100570.97;4899903;29;20064;-80
2022/08/08 08:38:32;;;;;;;1.65;0.70;;;;;;;31.48;33.03;100583.94;4880099;29;20040;-80
2022/08/08 08:40:58;;;;;;;2.70;0.68;;;;;;;31.38;32.64;100567.59;4878854;29;20025;-80
2022/08/08 08:43:26;;;;;;;1.65;0.80;;;;;;;31.35;32.77;100580.84;4897321;29;20055;-80
2022/08/08 08:45:53;;;;;;;2.38;0.73;;;;;;;31.66;33.24;100581.91;4880096;29;20028;-80
2022/08/08 08:48:19;;;;;;;1.92;0.80;;;;;;;31.88;31.72;100581.22;4888531;29;20039;-80
2022/08/08 08:50:48;;;;;;;1.52;0.60;;;;;;;32.05;32.41;100589.34;4878504;29;20029;-80
2022/08/08 08:53:14;;;;;;;2.53;0.80;;;;;;;32.18;32.07;100575.03;4879544;29;20032;-80
2022/08/08 08:55:42;;;;;;;1.80;0.98;;;;;;;32.45;31.99;100571.03;4891014;29;20701;-80
2022/08/08 08:58:18;;;;;;;2.15;0.65;;;;;;;32.29;31.09;100566.38;4880538;29;20033;-80
2022/08/08 09:00:44;;;;;;;0.70;0.60;;;;;;;32.40;31.50;100559.69;4862955;29;20048;-80
2022/08/08 09:03:10;;;;;;;3.90;0.80;;;;;;;32.59;30.26;100568.41;4880308;29;20037;-79
2022/08/08 09:05:39;;;;;;;4.60;1.48;;;;;;;32.70;30.25;100581.78;4916708;29;20040;-80
2022/08/08 09:08:08;;;;;;;2.22;0.70;;;;;;;32.74;31.04;100585.91;4917385;29;20036;-79
2022/08/08 09:10:38;;;;;;;4.85;0.90;;;;;;;32.80;30.91;100585.19;4900282;29;20059;-80
2022/08/08 09:13:08;;;;;;;5.10;0.88;;;;;;;32.78;30.62;100569.91;4917028;29;20452;-79
2022/08/08 09:15:33;;;;;;;2.17;0.60;;;;;;;32.99;30.75;100564.66;4917666;29;20451;-80
2022/08/08 09:18:01;;;;;;;2.28;0.75;;;;;;;33.06;30.87;100569.28;4918159;29;20111;-80
2022/08/08 09:20:27;;;;;;;4.03;1.10;;;;;;;33.30;30.76;100560.84;4900178;29;20044;-81
2022/08/08 09:22:56;;;;;;;2.95;0.93;;;;;;;33.42;30.56;100553.03;4900226;29;20055;-80
2022/08/08 09:25:23;;;;;;;5.47;0.85;;;;;;;33.54;30.71;100556.25;4898703;29;20028;-79
2022/08/08 09:27:50;;;;;;;5.63;0.93;;;;;;;33.46;30.78;100548.03;4892144;29;20040;-81
2022/08/08 09:30:15;;;;;;;3.60;0.90;;;;;;;33.59;30.44;100559.31;4878147;29;20047;-80
2022/08/08 09:32:50;;;;;;;1.50;0.80;;;;;;;33.72;30.62;100556.78;4879095;29;20033;-81
2022/08/08 09:35:21;;;;;;;2.55;0.73;;;;;;;33.65;29.64;100544.75;4912448;29;20032;-81
2022/08/08 09:37:50;;;;;;;2.55;1.10;;;;;;;33.72;30.43;100543.84;4900062;29;20071;-80
2022/08/08 09:40:17;;;;;;;2.55;0.82;;;;;;;33.68;30.07;100553.53;4900106;29;20034;-80
2022/08/08 09:42:46;;;;;;;4.65;0.85;;;;;;;33.97;29.94;100561.09;4917814;29;20031;-80
2022/08/08 09:45:23;;;;;;;2.40;0.80;;;;;;;33.91;29.36;100559.00;4915636;29;20032;-79
2022/08/08 09:47:49;;;;;;;2.33;0.90;;;;;;;33.92;29.39;100546.97;4897039;29;20068;-80
2022/08/08 09:50:18;;;;;;;1.35;0.80;;;;;;;34.00;30.28;100558.81;4897402;29;20490;-80
2022/08/08 09:52:49;;;;;;;3.47;0.93;;;;;;;34.05;29.63;100558.25;4898294;29;20035;-81
2022/08/08 09:55:16;;;;;;;4.28;0.70;;;;;;;34.20;29.22;100542.56;4897097;29;20020;-80
2022/08/08 09:57:44;;;;;;;2.50;0.95;;;;;;;34.46;29.46;100549.38;4896479;29;20402;-81
2022/08/08 10:00:13;;;;;;;4.53;0.90;;;;;;;34.28;29.14;100539.72;4891377;29;20036;-80
2022/08/08 10:02:48;;;;;;;1.02;0.85;;;;;;;34.33;30.00;100542.75;4880647;29;20463;-81
2022/08/08 10:05:16;;;;;;;1.25;0.70;;;;;;;34.47;29.74;100528.09;4884314;29;20393;-80
2022/08/08 10:07:51;;;;;;;1.73;0.88;;;;;;;34.92;29.51;100544.50;4881410;29;20048;-81
2022/08/08 10:10:43;;;;;;;1.10;0.70;;;;;;;35.10;29.27;100542.16;4879678;29;20049;-81
2022/08/08 10:13:28;;;;;;;3.10;0.90;;;;;;;35.30;29.14;100531.31;4894627;29;20037;-80
2022/08/08 10:15:56;;;;;;;2.08;1.00;;;;;;;35.27;29.08;100542.78;4877531;29;20039;-82
2022/08/08 10:18:30;;;;;;;5.05;0.90;;;;;;;35.10;28.57;100520.03;4877493;29;20712;-81
2022/08/08 10:21:09;;;;;;;6.60;1.13;;;;;;;35.58;28.98;100538.69;4892964;29;20032;-81
2022/08/08 10:23:43;;;;;;;3.25;0.82;;;;;;;35.64;29.31;100521.28;4893337;29;20123;-81
2022/08/08 10:26:15;;;;;;;6.43;1.15;;;;;;;35.86;28.53;100537.91;4896505;29;20100;-81
2022/08/08 10:28:55;;;;;;;2.90;1.00;;;;;;;35.74;28.19;100519.03;4898074;29;20512;-81
2022/08/08 10:34:14;;;;;;;2.22;1.00;;;;;;;35.59;27.11;100525.69;4904904;29;20064;-81
2022/08/08 10:36:41;;;;;;;3.13;1.00;;;;;;;35.54;27.47;100511.59;4898613;29;20032;-81
2022/08/08 10:39:09;;;;;;;2.25;0.90;;;;;;;35.64;27.91;100496.38;4897385;29;20035;-81
2022/08/08 10:41:37;;;;;;;2.15;0.82;;;;;;;35.88;28.89;100514.50;4880009;29;20064;-81
2022/08/08 10:44:05;;;;;;;2.17;0.75;;;;;;;35.86;28.20;100504.66;4897167;29;20060;-82
2022/08/08 10:46:30;;;;;;;1.95;0.80;;;;;;;36.08;27.92;100509.13;4896858;29;20427;-82
2022/08/08 10:48:57;;;;;;;3.17;1.10;;;;;;;36.26;27.98;100496.44;4880382;29;20029;-81
2022/08/08 10:51:28;;;;;;;2.92;1.00;;;;;;;36.54;26.95;100504.75;4897724;29;20043;-81
2022/08/08 10:53:55;;;;;;;4.40;0.90;;;;;;;36.65;27.62;100506.94;4880542;29;20481;-81
2022/08/08 10:56:21;;;;;;;2.78;0.85;;;;;;;36.62;27.53;100502.66;4894018;29;20040;-81
2022/08/08 10:58:56;;;;;;;2.05;0.70;;;;;;;36.43;26.74;100485.91;4879510;29;20061;-81
2022/08/08 11:01:27;;;;;;;5.00;1.00;;;;;;;36.29;26.74;100486.88;4887490;29;20025;-80
2022/08/08 11:03:57;;;;;;;2.33;0.90;;;;;;;36.39;26.29;100496.56;4903645;29;20059;-81
2022/08/08 11:06:22;;;;;;;1.23;0.90;;;;;;;36.20;26.92;100485.31;4916436;29;20034;-81
2022/08/08 11:08:47;;;;;;;1.40;0.90;;;;;;;36.52;27.02;100484.69;4897983;29;20143;-81
2022/08/08 11:11:13;;;;;;;2.35;0.90;;;;;;;36.46;26.36;100477.22;4899021;29;20036;-82
2022/08/08 11:13:40;;;;;;;2.47;0.90;;;;;;;36.75;27.16;100499.09;4884324;29;20064;-82
2022/08/08 11:16:07;;;;;;;2.38;0.80;;;;;;;36.55;24.97;100478.72;4866518;29;20025;-82
2022/08/08 11:18:34;;;;;;;1.98;0.63;;;;;;;36.64;26.15;100470.03;4866411;29;20110;-83
2022/08/08 11:21:03;;;;;;;3.88;0.80;;;;;;;37.03;25.44;100490.69;4880208;29;20404;-82
2022/08/08 11:23:33;;;;;;;1.63;0.80;;;;;;;36.59;24.87;100466.19;4897561;29;20040;-83
2022/08/08 11:26:05;;;;;;;2.85;0.70;;;;;;;36.81;25.48;100476.97;4889863;29;20029;-83
2022/08/08 11:28:34;;;;;;;3.73;0.77;;;;;;;36.81;25.56;100473.31;4883102;29;20025;-82
2022/08/08 11:31:02;;;;;;;2.40;0.90;;;;;;;36.77;26.37;100466.47;4901373;29;20327;-83
2022/08/08 11:33:29;;;;;;;4.13;1.08;;;;;;;37.04;25.91;100479.38;4885191;29;20040;-82
2022/08/08 11:35:55;;;;;;;3.33;0.90;;;;;;;36.89;25.83;100471.22;4919498;29;20035;-82
2022/08/08 11:38:24;;;;;;;1.90;0.93;;;;;;;36.67;25.78;100452.13;4917883;29;20076;-82
2022/08/08 11:40:51;;;;;;;1.15;0.73;;;;;;;36.78;26.26;100468.16;4882194;29;20043;-83
2022/08/08 11:43:17;;;;;;;2.90;0.82;;;;;;;36.50;26.81;100459.09;4898580;29;20358;-81
2022/08/08 11:45:48;;;;;;;2.17;0.63;;;;;;;36.54;25.77;100465.94;4882613;29;20050;-82
2022/08/08 11:48:15;;;;;;;2.53;0.82;;;;;;;36.76;25.82;100453.63;4883054;29;20351;-81
2022/08/08 11:50:42;;;;;;;4.20;0.90;;;;;;;36.83;25.53;100443.47;4897892;29;20087;-82
2022/08/08 11:53:09;;;;;;;2.80;0.93;;;;;;;37.20;25.98;100451.22;4875781;29;20100;-83
2022/08/08 11:55:45;;;;;;;3.20;0.85;;;;;;;37.32;24.98;100451.50;4881840;29;20036;-82
2022/08/08 11:58:13;;;;;;;2.40;0.90;;;;;;;37.22;25.29;100449.09;4887994;29;20393;-83